Time;durP1;ratioP1;P1;durP2;ratioP2;P2;SDS_P1;SDS_P2;PMS_P1;PMS_P2;Temp;Humidity;BMP_temperature;BMP_pressure;BME280_temperature;BME280_humidity;BME280_pressure;Samples;Min_cycle;Max_cycle;Signal;HPM_P1;HPM_P2
2023/03/17 00:01:53;;;;;;;3.57;2.57;;;9.90;97.10;;;;;;5019539;28;20466;-73
2023/03/17 00:04:20;;;;;;;4.30;2.20;;;9.90;97.20;;;;;;5019259;28;20423;-73
2023/03/17 00:06:49;;;;;;;3.47;2.20;;;9.90;97.20;;;;;;5035122;28;20461;-73
2023/03/17 00:09:17;;;;;;;2.60;2.20;;;9.90;97.30;;;;;;5035268;28;20454;-73
2023/03/17 00:11:46;;;;;;;3.20;1.83;;;9.90;97.30;;;;;;5034949;28;20454;-72
2023/03/17 00:14:12;;;;;;;2.87;1.80;;;9.90;97.40;;;;;;5018002;28;20422;-73
2023/03/17 00:16:43;;;;;;;3.23;2.10;;;9.90;97.40;;;;;;5003042;28;20439;-73
2023/03/17 00:19:31;;;;;;;2.70;2.23;;;9.90;97.40;;;;;;5053456;28;20482;-73
2023/03/17 00:22:00;;;;;;;4.63;2.70;;;9.90;97.40;;;;;;5035081;28;20542;-73
2023/03/17 00:24:29;;;;;;;2.10;1.87;;;9.90;97.40;;;;;;5036138;28;20427;-73
2023/03/17 00:26:55;;;;;;;3.90;1.73;;;9.90;97.50;;;;;;5018893;28;20421;-73
2023/03/17 00:29:25;;;;;;;3.30;2.00;;;9.90;97.60;;;;;;5019231;28;20484;-73
2023/03/17 00:31:52;;;;;;;2.83;1.80;;;9.90;97.50;;;;;;5018461;28;20501;-73
2023/03/17 00:34:22;;;;;;;2.03;1.83;;;9.90;97.50;;;;;;4965889;28;1087243;-73
2023/03/17 00:36:49;;;;;;;2.90;2.00;;;9.90;97.60;;;;;;5019840;28;20795;-73
2023/03/17 00:39:17;;;;;;;2.43;2.20;;;9.90;97.60;;;;;;5036356;28;20521;-73
2023/03/17 00:41:43;;;;;;;2.60;1.83;;;9.90;97.60;;;;;;5016451;28;20940;-73
2023/03/17 00:44:10;;;;;;;5.83;2.77;;;9.90;97.60;;;;;;5034384;28;20925;-73
2023/03/17 00:46:40;;;;;;;2.67;1.90;;;9.90;97.60;;;;;;5036183;28;20450;-73
2023/03/17 00:49:22;;;;;;;3.70;2.30;;;9.80;97.50;;;;;;5011675;28;20461;-73
2023/03/17 00:51:51;;;;;;;2.70;2.40;;;9.90;97.50;;;;;;5000193;28;20791;-73
2023/03/17 00:54:21;;;;;;;3.63;2.60;;;9.80;97.50;;;;;;5025012;28;20415;-73
2023/03/17 00:56:52;;;;;;;2.60;2.00;;;9.80;97.50;;;;;;5015852;28;20439;-73
2023/03/17 00:59:21;;;;;;;5.63;2.10;;;9.80;97.50;;;;;;5007829;28;20485;-73
2023/03/17 01:01:49;;;;;;;2.17;1.80;;;9.80;97.50;;;;;;5019299;28;20487;-73
2023/03/17 01:04:16;;;;;;;1.80;1.70;;;9.80;97.50;;;;;;5036014;28;20442;-73
2023/03/17 01:06:45;;;;;;;3.10;2.10;;;9.80;97.60;;;;;;5036359;28;20415;-73
2023/03/17 01:09:14;;;;;;;2.37;2.10;;;9.80;97.70;;;;;;5019344;28;20439;-73
2023/03/17 01:11:40;;;;;;;2.43;2.20;;;9.80;97.70;;;;;;5035343;28;20433;-73
2023/03/17 01:14:09;;;;;;;3.03;2.30;;;9.80;97.80;;;;;;5019349;28;20431;-73
2023/03/17 01:16:37;;;;;;;3.63;2.37;;;9.80;97.70;;;;;;5019287;28;20916;-73
2023/03/17 01:19:04;;;;;;;1.90;1.67;;;9.80;97.70;;;;;;5053471;28;20815;-73
2023/03/17 01:21:33;;;;;;;3.27;2.40;;;9.80;97.70;;;;;;5019074;28;20493;-73
2023/03/17 01:24:01;;;;;;;3.10;2.40;;;9.80;97.70;;;;;;5035011;28;20438;-73
2023/03/17 01:26:30;;;;;;;5.23;2.10;;;9.80;97.70;;;;;;5019099;28;20557;-73
2023/03/17 01:28:58;;;;;;;4.60;2.47;;;9.80;97.70;;;;;;5035326;28;20442;-73
2023/03/17 01:31:29;;;;;;;3.63;2.83;;;9.80;97.70;;;;;;5052813;28;20500;-73
2023/03/17 01:33:55;;;;;;;2.50;2.10;;;9.80;97.70;;;;;;5035260;28;20445;-73
2023/03/17 01:36:24;;;;;;;3.60;2.00;;;9.80;97.70;;;;;;5018874;28;20415;-73
2023/03/17 01:38:50;;;;;;;3.30;1.93;;;9.80;98.00;;;;;;5033912;28;20466;-73
2023/03/17 01:41:19;;;;;;;2.80;2.10;;;9.80;97.50;;;;;;5052958;28;20446;-73
2023/03/17 01:43:45;;;;;;;5.20;4.13;;;9.80;97.50;;;;;;5034159;28;20422;-73
2023/03/17 01:46:46;;;;;;;4.63;2.60;;;9.80;97.40;;;;;;5018930;28;20429;-73
2023/03/17 01:49:18;;;;;;;3.17;2.50;;;9.80;97.40;;;;;;5009050;28;20803;-73
2023/03/17 01:51:53;;;;;;;5.67;2.13;;;9.80;97.50;;;;;;5018332;28;20426;-73
2023/03/17 01:54:40;;;;;;;5.70;2.33;;;9.80;97.50;;;;;;5035324;28;20728;-73
2023/03/17 01:57:18;;;;;;;2.53;2.20;;;9.80;97.60;;;;;;5034785;28;20933;-73
2023/03/17 02:00:05;;;;;;;2.67;2.03;;;9.80;97.50;;;;;;5035151;28;20442;-73
2023/03/17 02:02:46;;;;;;;3.57;2.20;;;9.80;97.60;;;;;;5042059;28;20466;-73
2023/03/17 02:05:16;;;;;;;2.93;2.00;;;9.80;97.60;;;;;;5034976;28;20916;-73
2023/03/17 02:07:46;;;;;;;2.87;1.97;;;9.80;97.60;;;;;;5034574;28;20410;-73
2023/03/17 02:10:14;;;;;;;2.50;2.03;;;9.80;97.60;;;;;;5034255;28;20438;-73
2023/03/17 02:12:44;;;;;;;2.37;2.17;;;9.80;97.60;;;;;;5034053;28;20437;-73
2023/03/17 02:15:14;;;;;;;2.80;2.23;;;9.80;97.70;;;;;;5034811;28;20448;-73
2023/03/17 02:17:47;;;;;;;2.23;1.53;;;9.80;97.70;;;;;;5034298;28;20533;-73
2023/03/17 02:20:15;;;;;;;2.73;2.50;;;9.80;97.70;;;;;;5017143;28;20447;-73
2023/03/17 02:22:49;;;;;;;3.97;2.10;;;9.80;97.70;;;;;;5022460;28;20458;-73
2023/03/17 02:25:16;;;;;;;2.30;1.87;;;9.80;97.80;;;;;;5033463;28;20444;-73
2023/03/17 02:27:45;;;;;;;2.70;1.93;;;9.80;97.90;;;;;;5017543;28;20490;-73
2023/03/17 02:30:17;;;;;;;2.90;2.10;;;9.80;97.90;;;;;;5034428;28;20451;-73
2023/03/17 02:32:48;;;;;;;3.87;2.53;;;9.80;97.90;;;;;;5033821;28;21007;-73
2023/03/17 02:35:18;;;;;;;3.30;1.93;;;9.80;97.80;;;;;;5033582;28;20404;-73
2023/03/17 02:37:46;;;;;;;2.60;1.70;;;9.80;97.80;;;;;;5007261;28;20451;-73
2023/03/17 02:40:13;;;;;;;3.50;2.40;;;9.80;97.70;;;;;;5048933;28;20468;-73
2023/03/17 02:42:42;;;;;;;2.30;2.10;;;9.80;97.70;;;;;;5017117;28;20462;-73
2023/03/17 02:45:12;;;;;;;2.53;2.10;;;9.70;97.70;;;;;;5018068;28;20455;-73
2023/03/17 02:47:43;;;;;;;2.97;2.10;;;9.80;97.70;;;;;;5017893;28;20490;-73
2023/03/17 02:50:21;;;;;;;2.33;1.83;;;9.80;97.70;;;;;;5033925;28;20453;-73
2023/03/17 02:52:50;;;;;;;3.20;2.00;;;9.70;97.70;;;;;;5017126;28;21010;-73
2023/03/17 02:55:21;;;;;;;3.90;2.10;;;9.80;97.70;;;;;;4997539;28;20436;-73
2023/03/17 02:57:47;;;;;;;3.47;2.20;;;9.70;97.70;;;;;;5016358;28;20450;-73
2023/03/17 03:00:16;;;;;;;2.80;2.20;;;9.80;97.70;;;;;;5030985;28;20467;-73
2023/03/17 03:02:49;;;;;;;1.60;1.50;;;9.80;97.80;;;;;;5032312;28;20465;-73
2023/03/17 03:05:15;;;;;;;2.57;2.37;;;9.70;97.90;;;;;;5034429;28;20406;-73
2023/03/17 03:07:43;;;;;;;3.07;2.43;;;9.80;97.90;;;;;;5032866;28;20450;-73
2023/03/17 03:10:12;;;;;;;2.87;2.50;;;9.80;98.00;;;;;;5033731;28;20529;-73
2023/03/17 03:12:43;;;;;;;2.90;1.80;;;9.80;98.00;;;;;;5016937;28;20450;-73
2023/03/17 03:15:10;;;;;;;2.50;1.80;;;9.80;98.00;;;;;;5017488;28;20987;-73
2023/03/17 03:17:36;;;;;;;2.63;2.00;;;9.70;98.00;;;;;;5033652;28;20480;-73
2023/03/17 03:20:05;;;;;;;2.00;1.83;;;9.70;98.00;;;;;;5033450;28;20524;-73
2023/03/17 03:22:31;;;;;;;3.10;2.30;;;9.70;98.00;;;;;;5051146;28;20473;-73
2023/03/17 03:24:57;;;;;;;8.63;2.67;;;9.70;97.90;;;;;;5050694;28;20438;-73
2023/03/17 03:27:23;;;;;;;3.80;2.47;;;9.70;97.90;;;;;;5032602;28;20431;-73
2023/03/17 03:29:53;;;;;;;2.80;2.07;;;9.70;97.90;;;;;;5034025;28;20442;-73
2023/03/17 03:32:21;;;;;;;6.60;3.00;;;9.70;97.90;;;;;;5051055;28;20922;-73
2023/03/17 03:34:48;;;;;;;2.77;2.17;;;9.70;97.90;;;;;;5051263;28;20454;-73
2023/03/17 03:37:14;;;;;;;2.80;2.20;;;9.70;98.20;;;;;;5017194;28;20411;-73
2023/03/17 03:39:40;;;;;;;2.20;2.00;;;9.70;97.80;;;;;;5033049;28;20537;-73
2023/03/17 03:42:07;;;;;;;2.93;1.83;;;9.70;97.80;;;;;;5016828;28;20545;-73
2023/03/17 03:44:33;;;;;;;3.13;2.23;;;9.70;97.80;;;;;;5033654;28;20509;-73
2023/03/17 03:47:01;;;;;;;4.23;2.37;;;9.70;97.70;;;;;;5017364;28;20489;-73
2023/03/17 03:49:30;;;;;;;2.47;2.10;;;9.70;97.80;;;;;;5001298;28;20457;-73
2023/03/17 03:52:01;;;;;;;2.33;1.93;;;9.70;97.70;;;;;;5001804;28;20939;-73
2023/03/17 03:54:29;;;;;;;2.80;2.10;;;9.70;98.00;;;;;;5032498;28;20473;-73
2023/03/17 03:56:56;;;;;;;3.37;2.23;;;9.70;97.70;;;;;;5000973;28;20940;-73
2023/03/17 03:59:24;;;;;;;3.60;2.30;;;9.70;97.70;;;;;;5000570;28;20854;-73
2023/03/17 04:01:55;;;;;;;2.60;2.40;;;9.70;97.70;;;;;;5017394;28;20490;-73
2023/03/17 04:04:25;;;;;;;2.07;1.80;;;9.60;97.60;;;;;;5033412;28;20415;-73
2023/03/17 04:06:53;;;;;;;2.33;2.13;;;9.70;97.70;;;;;;5035723;28;20459;-73
2023/03/17 04:09:21;;;;;;;2.37;1.70;;;9.60;97.70;;;;;;5054905;28;20435;-73
2023/03/17 04:11:47;;;;;;;2.20;1.87;;;9.60;97.70;;;;;;5053286;28;20453;-73
2023/03/17 04:14:13;;;;;;;2.40;2.07;;;9.60;97.70;;;;;;5036935;28;20172;-73
2023/03/17 04:16:39;;;;;;;3.63;2.13;;;9.60;97.70;;;;;;5020462;28;20481;-73
2023/03/17 04:19:09;;;;;;;4.10;2.37;;;9.60;97.70;;;;;;5036580;28;20441;-73
2023/03/17 04:21:36;;;;;;;2.73;2.20;;;9.60;97.70;;;;;;5054121;28;20823;-73
2023/03/17 04:24:05;;;;;;;2.70;2.10;;;9.60;97.60;;;;;;5035090;28;20446;-73
2023/03/17 04:26:31;;;;;;;3.73;2.40;;;9.60;97.70;;;;;;5036572;28;20843;-73
2023/03/17 04:29:00;;;;;;;4.67;2.57;;;9.60;97.70;;;;;;5036958;28;20538;-73
2023/03/17 04:31:28;;;;;;;3.30;2.63;;;9.60;97.70;;;;;;5016342;28;20739;-73
2023/03/17 04:33:56;;;;;;;2.43;2.13;;;9.60;97.70;;;;;;5053128;28;20941;-73
2023/03/17 04:36:25;;;;;;;2.60;2.40;;;9.60;97.70;;;;;;5036975;28;20399;-73
2023/03/17 04:38:51;;;;;;;2.97;2.67;;;9.60;97.60;;;;;;5036430;28;20443;-73
2023/03/17 04:41:20;;;;;;;2.50;2.10;;;9.60;97.70;;;;;;5010186;28;20557;-73
2023/03/17 04:43:51;;;;;;;3.77;2.60;;;9.60;97.70;;;;;;5036669;28;20399;-73
2023/03/17 04:46:21;;;;;;;2.33;1.97;;;9.60;97.70;;;;;;5053808;28;20540;-73
2023/03/17 04:48:50;;;;;;;3.83;2.73;;;9.60;97.70;;;;;;5035966;28;20454;-73
2023/03/17 04:51:16;;;;;;;3.20;2.43;;;9.60;97.70;;;;;;5019684;28;20434;-73
2023/03/17 04:53:52;;;;;;;3.13;2.43;;;9.60;97.70;;;;;;5036699;28;20204;-73
2023/03/17 04:56:18;;;;;;;3.10;2.40;;;9.60;97.70;;;;;;5053698;28;20424;-73
2023/03/17 04:58:49;;;;;;;3.30;2.93;;;9.60;97.70;;;;;;5035635;28;20439;-73
2023/03/17 05:01:15;;;;;;;2.90;2.47;;;9.60;97.70;;;;;;5036001;28;20546;-73
2023/03/17 05:03:41;;;;;;;2.87;2.40;;;9.60;97.70;;;;;;5053697;28;20425;-73
2023/03/17 05:06:09;;;;;;;3.00;2.40;;;9.60;97.70;;;;;;5034943;28;20426;-73
2023/03/17 05:08:38;;;;;;;4.80;2.57;;;9.50;97.70;;;;;;5036018;28;20441;-73
2023/03/17 05:11:06;;;;;;;4.67;3.07;;;9.50;97.70;;;;;;5035458;28;20484;-73
2023/03/17 05:13:35;;;;;;;2.80;2.17;;;9.60;97.70;;;;;;5016920;28;20438;-73
2023/03/17 05:16:02;;;;;;;3.07;2.37;;;9.50;97.60;;;;;;5018582;28;20419;-74
2023/03/17 05:18:29;;;;;;;4.70;2.63;;;9.50;97.60;;;;;;5033968;28;20489;-72
2023/03/17 05:20:55;;;;;;;2.40;2.17;;;9.50;97.60;;;;;;5035501;28;20494;-71
2023/03/17 05:23:25;;;;;;;2.83;2.53;;;9.50;97.60;;;;;;5035768;28;20784;-75
2023/03/17 05:25:52;;;;;;;2.60;2.40;;;9.50;97.60;;;;;;5018675;28;20438;-72
2023/03/17 05:28:21;;;;;;;3.70;2.67;;;9.50;97.60;;;;;;5019500;28;20461;-73
2023/03/17 05:30:49;;;;;;;3.03;2.27;;;9.50;97.70;;;;;;5035390;28;20520;-72
2023/03/17 05:33:15;;;;;;;4.30;2.30;;;9.50;97.70;;;;;;5034469;28;20466;-72
2023/03/17 05:35:45;;;;;;;6.07;2.83;;;9.50;98.00;;;;;;5035250;28;20451;-72
2023/03/17 05:38:12;;;;;;;2.70;2.30;;;9.50;97.70;;;;;;5034883;28;20418;-72
2023/03/17 05:40:41;;;;;;;2.87;2.37;;;9.50;97.70;;;;;;5035175;28;20458;-72
2023/03/17 05:43:07;;;;;;;3.20;2.20;;;9.50;97.80;;;;;;5018595;28;20486;-72
2023/03/17 05:45:38;;;;;;;3.00;2.17;;;9.50;97.80;;;;;;5035781;28;20415;-72
2023/03/17 05:48:05;;;;;;;2.60;2.30;;;9.50;97.80;;;;;;5053034;28;20954;-72
2023/03/17 05:50:31;;;;;;;2.47;2.27;;;9.50;97.80;;;;;;5034641;28;20520;-72
2023/03/17 05:52:56;;;;;;;2.87;2.50;;;9.50;97.80;;;;;;5052232;28;20434;-72
2023/03/17 05:55:25;;;;;;;2.43;2.17;;;9.50;97.80;;;;;;5035313;28;21105;-72
2023/03/17 05:57:51;;;;;;;3.77;2.40;;;9.50;97.80;;;;;;5035140;28;20462;-72
2023/03/17 06:00:17;;;;;;;3.00;2.57;;;9.50;97.70;;;;;;5034892;28;20446;-72
2023/03/17 06:02:43;;;;;;;4.47;2.50;;;9.50;97.80;;;;;;5034325;28;21031;-72
2023/03/17 06:05:15;;;;;;;3.17;2.33;;;9.50;97.70;;;;;;5052645;28;20399;-72
2023/03/17 06:07:45;;;;;;;4.73;2.87;;;9.40;97.70;;;;;;5034776;28;20450;-72
2023/03/17 06:10:12;;;;;;;3.47;2.30;;;9.50;97.80;;;;;;5017876;28;20442;-72
2023/03/17 06:12:38;;;;;;;2.83;2.43;;;9.50;97.80;;;;;;5018354;28;20391;-72
2023/03/17 06:15:06;;;;;;;2.90;2.60;;;9.40;97.70;;;;;;5034522;28;20460;-72
2023/03/17 06:17:32;;;;;;;3.30;2.23;;;9.50;97.70;;;;;;5034864;28;20454;-72
2023/03/17 06:19:58;;;;;;;3.20;2.33;;;9.40;97.70;;;;;;5034194;28;20649;-75
2023/03/17 06:22:31;;;;;;;2.53;2.20;;;9.40;97.70;;;;;;5051661;28;20963;-72
2023/03/17 06:24:57;;;;;;;5.80;2.20;;;9.40;97.70;;;;;;5009788;28;20412;-72
2023/03/17 06:27:25;;;;;;;2.57;2.37;;;9.50;97.70;;;;;;5009741;28;20854;-72
2023/03/17 06:29:52;;;;;;;3.43;2.70;;;9.40;97.70;;;;;;5034408;28;20447;-72
2023/03/17 06:32:18;;;;;;;4.20;2.40;;;9.50;97.80;;;;;;5050705;28;20437;-75
2023/03/17 06:34:47;;;;;;;3.07;2.60;;;9.50;97.80;;;;;;5033369;28;20434;-75
2023/03/17 06:37:13;;;;;;;3.70;2.77;;;9.50;98.20;;;;;;5033901;28;20496;-71
2023/03/17 06:39:42;;;;;;;3.03;2.43;;;9.50;97.80;;;;;;5032568;28;20458;-73
2023/03/17 06:42:08;;;;;;;2.90;2.37;;;9.50;97.80;;;;;;5051415;28;20458;-74
2023/03/17 06:44:35;;;;;;;2.80;2.50;;;9.50;97.80;;;;;;5034120;28;20862;-73
2023/03/17 06:47:03;;;;;;;3.60;2.60;;;9.50;97.90;;;;;;5020661;28;20485;-73
2023/03/17 06:49:30;;;;;;;2.57;1.90;;;9.40;97.80;;;;;;5014240;28;20550;-73
2023/03/17 06:51:59;;;;;;;2.73;2.50;;;9.50;97.80;;;;;;5031462;28;20450;-73
2023/03/17 06:54:27;;;;;;;4.00;2.20;;;9.50;97.80;;;;;;5051903;28;20411;-73
2023/03/17 06:56:58;;;;;;;3.40;3.00;;;9.50;97.90;;;;;;5014386;28;20842;-73
2023/03/17 06:59:29;;;;;;;3.07;2.03;;;9.50;97.90;;;;;;5033886;28;20489;-74
2023/03/17 07:01:59;;;;;;;4.00;2.17;;;9.50;97.90;;;;;;5016247;28;20466;-73
2023/03/17 07:04:26;;;;;;;2.23;2.03;;;9.50;97.90;;;;;;5051532;28;20390;-73
2023/03/17 07:06:52;;;;;;;3.10;2.53;;;9.50;97.90;;;;;;5010191;28;20463;-73
2023/03/17 07:09:20;;;;;;;6.17;2.00;;;9.50;97.90;;;;;;5031673;28;20512;-73
2023/03/17 07:11:46;;;;;;;2.97;2.47;;;9.50;97.90;;;;;;5012362;28;20445;-73
2023/03/17 07:14:18;;;;;;;4.63;2.70;;;9.50;97.90;;;;;;5050606;28;20924;-73
2023/03/17 07:16:44;;;;;;;2.70;2.40;;;9.60;98.00;;;;;;5019222;28;20913;-74
2023/03/17 07:19:15;;;;;;;2.73;2.30;;;9.60;98.00;;;;;;5032276;28;20866;-69
2023/03/17 07:21:43;;;;;;;2.70;2.50;;;9.60;98.00;;;;;;5048728;28;20450;-69
2023/03/17 07:24:10;;;;;;;3.50;2.50;;;9.60;97.90;;;;;;5031758;28;20945;-69
2023/03/17 07:26:39;;;;;;;2.50;2.20;;;9.60;97.80;;;;;;5032068;28;21014;-68
2023/03/17 07:29:07;;;;;;;4.93;2.50;;;9.60;97.80;;;;;;5013407;28;20515;-69
2023/03/17 07:31:37;;;;;;;3.57;2.50;;;9.60;97.80;;;;;;4999864;28;20439;-69
2023/03/17 07:34:05;;;;;;;2.50;2.10;;;9.60;97.80;;;;;;5014181;28;20975;-69
2023/03/17 07:36:32;;;;;;;3.67;2.47;;;9.60;97.70;;;;;;5040055;28;22080;-69
2023/03/17 07:39:06;;;;;;;2.50;2.30;;;9.70;97.70;;;;;;5017396;28;20469;-68
2023/03/17 07:41:32;;;;;;;6.13;2.47;;;9.60;97.70;;;;;;5052663;28;20444;-68
2023/03/17 07:43:58;;;;;;;2.20;2.07;;;9.70;97.70;;;;;;5036966;28;20402;-69
2023/03/17 07:46:27;;;;;;;2.30;2.10;;;9.60;97.60;;;;;;5037090;28;20537;-69
2023/03/17 07:48:53;;;;;;;2.83;2.30;;;9.70;97.70;;;;;;5036293;28;20818;-69
2023/03/17 07:51:26;;;;;;;2.40;2.20;;;9.70;97.80;;;;;;5020989;28;20458;-68
2023/03/17 07:54:02;;;;;;;2.80;2.20;;;9.70;97.80;;;;;;5037268;28;21148;-72
2023/03/17 07:56:31;;;;;;;2.50;2.30;;;9.70;97.90;;;;;;5037215;28;20430;-72
2023/03/17 07:59:00;;;;;;;3.93;2.70;;;9.70;97.90;;;;;;5037088;28;20782;-72
2023/03/17 08:01:27;;;;;;;5.40;3.17;;;9.70;97.90;;;;;;5037083;28;20878;-71
2023/03/17 08:03:54;;;;;;;3.00;2.07;;;9.70;98.00;;;;;;5020790;28;20454;-72
2023/03/17 08:06:24;;;;;;;3.03;2.40;;;9.70;97.90;;;;;;5020703;28;20469;-71
2023/03/17 08:08:54;;;;;;;2.80;2.47;;;9.80;97.90;;;;;;5036912;28;20446;-72
2023/03/17 08:11:20;;;;;;;2.80;2.30;;;9.80;97.90;;;;;;5035678;28;20802;-73
2023/03/17 08:13:49;;;;;;;3.17;2.50;;;9.80;97.90;;;;;;5017444;28;20531;-70
2023/03/17 08:16:15;;;;;;;2.70;2.50;;;9.80;97.90;;;;;;4989290;28;20508;-71
2023/03/17 08:18:42;;;;;;;2.87;2.30;;;9.80;97.90;;;;;;5047997;28;20462;-73
2023/03/17 08:21:10;;;;;;;3.10;2.60;;;9.80;97.90;;;;;;5035248;28;20458;-71
2023/03/17 08:23:36;;;;;;;2.63;2.30;;;9.80;97.80;;;;;;5036933;28;20429;-72
2023/03/17 08:26:03;;;;;;;2.53;2.10;;;9.80;97.80;;;;;;5020091;28;20761;-72
2023/03/17 08:28:31;;;;;;;2.80;2.00;;;9.80;97.90;;;;;;5053851;28;20418;-73
2023/03/17 08:31:13;;;;;;;2.60;2.40;;;9.80;97.80;;;;;;5036698;28;20435;-73
2023/03/17 08:33:41;;;;;;;3.60;2.57;;;9.80;97.90;;;;;;5054444;28;20469;-72
2023/03/17 08:36:09;;;;;;;4.07;2.53;;;9.90;98.00;;;;;;5036826;28;20594;-72
2023/03/17 08:38:42;;;;;;;2.70;2.30;;;9.90;97.90;;;;;;5036828;28;20496;-72
2023/03/17 08:41:11;;;;;;;4.80;2.63;;;9.90;97.90;;;;;;5036347;28;20893;-72
2023/03/17 08:43:40;;;;;;;2.40;2.20;;;9.90;98.00;;;;;;5019631;28;20501;-72
2023/03/17 08:46:12;;;;;;;2.80;2.53;;;9.90;98.00;;;;;;5053100;28;20438;-72
2023/03/17 08:48:40;;;;;;;3.40;2.07;;;9.90;98.00;;;;;;5036398;28;20455;-72
2023/03/17 08:51:06;;;;;;;6.40;2.53;;;9.90;98.00;;;;;;5015585;28;20972;-72
2023/03/17 08:53:34;;;;;;;3.03;2.33;;;10.00;97.50;;;;;;5015237;28;20435;-72
2023/03/17 08:56:02;;;;;;;3.50;1.83;;;10.00;97.50;;;;;;5034097;28;20403;-72
2023/03/17 08:58:30;;;;;;;2.30;2.10;;;10.00;97.50;;;;;;5019914;28;20533;-69
2023/03/17 09:01:01;;;;;;;2.73;2.20;;;10.00;97.60;;;;;;4997680;28;20949;-70
2023/03/17 09:03:32;;;;;;;7.03;2.07;;;10.00;97.60;;;;;;4984651;28;20419;-70
2023/03/17 09:05:59;;;;;;;2.50;2.10;;;10.00;97.60;;;;;;5034152;28;20396;-70
2023/03/17 09:08:28;;;;;;;2.70;2.23;;;10.10;97.70;;;;;;5032944;28;20439;-70
2023/03/17 09:10:56;;;;;;;3.23;2.03;;;10.10;97.60;;;;;;5018777;28;20536;-70
2023/03/17 09:13:22;;;;;;;4.03;2.13;;;10.10;97.60;;;;;;5035127;28;20486;-70
2023/03/17 09:15:52;;;;;;;2.80;2.17;;;10.10;97.70;;;;;;5035980;28;20411;-70
2023/03/17 09:18:21;;;;;;;2.70;1.97;;;10.10;97.70;;;;;;5035206;28;20464;-71
2023/03/17 09:20:47;;;;;;;2.50;2.07;;;10.10;97.80;;;;;;5035730;28;20779;-70
2023/03/17 09:23:16;;;;;;;3.87;2.00;;;10.10;97.80;;;;;;5051594;28;20976;-70
2023/03/17 09:25:45;;;;;;;3.60;2.07;;;10.20;97.80;;;;;;5019061;28;20413;-70
2023/03/17 09:28:13;;;;;;;3.80;2.60;;;10.20;97.80;;;;;;5035691;28;20464;-70
2023/03/17 09:30:43;;;;;;;2.50;2.30;;;10.20;97.80;;;;;;5015545;28;20435;-70
2023/03/17 09:33:12;;;;;;;2.23;2.03;;;10.20;97.80;;;;;;5006450;28;20462;-70
2023/03/17 09:35:39;;;;;;;4.90;2.20;;;10.20;97.80;;;;;;5017799;28;20446;-69
2023/03/17 09:38:08;;;;;;;3.90;2.10;;;10.30;97.80;;;;;;5030064;28;20463;-69
2023/03/17 09:41:11;;;;;;;3.67;2.30;;;10.30;97.80;;;;;;4998898;28;20455;-69
2023/03/17 09:43:47;;;;;;;3.80;2.40;;;10.30;97.80;;;;;;4982831;28;20531;-69
2023/03/17 09:46:46;;;;;;;3.07;2.10;;;10.40;97.80;;;;;;4999161;28;20845;-68
2023/03/17 09:49:19;;;;;;;2.27;2.07;;;10.40;97.80;;;;;;5015430;28;20436;-70
2023/03/17 09:51:49;;;;;;;3.80;2.53;;;10.40;97.70;;;;;;5007165;28;20450;-73
2023/03/17 09:54:35;;;;;;;2.80;2.43;;;10.40;97.80;;;;;;5035316;28;20435;-73
2023/03/17 09:57:18;;;;;;;3.10;2.23;;;10.50;97.80;;;;;;5034856;28;20430;-71
2023/03/17 09:59:49;;;;;;;3.40;2.37;;;10.50;97.80;;;;;;5053665;28;20430;-71
2023/03/17 10:02:31;;;;;;;3.10;2.67;;;10.50;97.80;;;;;;5052712;28;20452;-72
2023/03/17 10:05:20;;;;;;;3.20;2.10;;;10.50;97.80;;;;;;5031350;28;20418;-70
2023/03/17 10:07:52;;;;;;;3.87;2.00;;;10.60;97.70;;;;;;5034284;28;20500;-69
2023/03/17 10:10:28;;;;;;;2.50;2.27;;;10.60;97.80;;;;;;5016957;28;20456;-70
2023/03/17 10:12:57;;;;;;;2.90;2.50;;;10.60;97.70;;;;;;5035792;28;20775;-72
2023/03/17 10:15:40;;;;;;;2.13;1.93;;;10.70;97.70;;;;;;5019232;28;20427;-71
2023/03/17 10:18:16;;;;;;;3.00;2.30;;;10.70;97.70;;;;;;5019708;28;20915;-72
2023/03/17 10:20:52;;;;;;;3.13;1.70;;;10.70;97.70;;;;;;5006476;28;20976;-71
2023/03/17 10:23:28;;;;;;;3.33;2.07;;;10.70;97.60;;;;;;5052111;28;20462;-71
2023/03/17 10:26:01;;;;;;;3.50;2.00;;;10.70;97.70;;;;;;5045455;28;20504;-70
2023/03/17 10:28:31;;;;;;;1.97;1.77;;;10.80;97.70;;;;;;5033603;28;20427;-70
2023/03/17 10:31:16;;;;;;;2.73;2.00;;;10.80;97.70;;;;;;5005650;28;20429;-71
2023/03/17 10:33:47;;;;;;;3.57;1.90;;;10.80;97.50;;;;;;5051930;28;20431;-71
2023/03/17 10:36:39;;;;;;;4.63;2.40;;;10.90;97.50;;;;;;5051936;28;20404;-70
2023/03/17 10:39:07;;;;;;;3.83;2.00;;;10.90;97.50;;;;;;5018992;28;20446;-70
2023/03/17 10:41:39;;;;;;;4.97;2.57;;;10.90;97.50;;;;;;5036718;28;20454;-71
2023/03/17 10:44:20;;;;;;;2.90;2.20;;;10.90;97.50;;;;;;5053328;28;20407;-71
2023/03/17 10:46:54;;;;;;;4.57;1.90;;;10.90;97.60;;;;;;5052874;28;20437;-71
2023/03/17 10:49:22;;;;;;;4.27;2.27;;;11.00;97.60;;;;;;5033892;28;20616;-72
2023/03/17 10:51:51;;;;;;;2.77;2.07;;;11.00;97.60;;;;;;5029470;28;20431;-71
2023/03/17 10:54:19;;;;;;;3.40;2.83;;;11.00;97.60;;;;;;5051843;28;20534;-71
2023/03/17 10:57:00;;;;;;;3.30;2.27;;;11.10;98.10;;;;;;5047079;28;20472;-70
2023/03/17 10:59:28;;;;;;;4.60;2.10;;;11.10;97.70;;;;;;5022991;28;20457;-71
2023/03/17 11:02:08;;;;;;;2.93;2.13;;;11.10;97.70;;;;;;5051395;28;20455;-72
2023/03/17 11:04:43;;;;;;;6.03;3.03;;;11.20;97.70;;;;;;5026970;28;20441;-71
2023/03/17 11:07:20;;;;;;;2.83;2.23;;;11.20;97.70;;;;;;5034680;28;20797;-69
2023/03/17 11:09:51;;;;;;;2.57;2.13;;;11.20;97.60;;;;;;5032859;28;20455;-69
2023/03/17 11:12:28;;;;;;;3.37;2.10;;;11.20;97.60;;;;;;5033077;28;20779;-69
2023/03/17 11:15:02;;;;;;;5.20;2.73;;;11.20;97.60;;;;;;5033256;28;20459;-69
2023/03/17 11:17:48;;;;;;;5.60;2.07;;;11.30;97.70;;;;;;5036679;28;20905;-69
2023/03/17 11:20:44;;;;;;;2.30;2.10;;;11.30;97.70;;;;;;5052795;28;20597;-68
2023/03/17 11:23:12;;;;;;;2.63;2.37;;;11.30;97.70;;;;;;5040649;28;20568;-69
2023/03/17 11:25:42;;;;;;;4.07;2.63;;;11.40;97.80;;;;;;5053174;28;20438;-69
2023/03/17 11:28:27;;;;;;;4.30;2.23;;;11.50;97.80;;;;;;5026092;28;20935;-70
2023/03/17 11:31:16;;;;;;;4.47;2.67;;;11.40;98.10;;;;;;5035802;28;20940;-70
2023/03/17 11:34:16;;;;;;;3.10;2.10;;;11.50;97.70;;;;;;5007003;28;20456;-71
2023/03/17 11:37:12;;;;;;;2.47;2.27;;;11.60;97.80;;;;;;5007627;28;20470;-68
2023/03/17 11:39:38;;;;;;;3.30;2.40;;;11.60;97.80;;;;;;5037361;28;20441;-68
2023/03/17 11:42:13;;;;;;;5.30;1.93;;;11.60;97.80;;;;;;5055059;28;20795;-68
2023/03/17 11:45:09;;;;;;;4.90;2.37;;;11.70;97.90;;;;;;5021485;28;20487;-67
2023/03/17 11:47:55;;;;;;;4.73;2.33;;;11.70;97.90;;;;;;5037290;28;20409;-71
2023/03/17 11:50:27;;;;;;;3.27;2.70;;;11.70;97.80;;;;;;5014611;28;20430;-70
2023/03/17 11:53:30;;;;;;;4.60;2.70;;;11.80;97.90;;;;;;5055042;28;20432;-69
2023/03/17 11:56:19;;;;;;;3.10;2.17;;;11.80;97.90;;;;;;4984648;28;20431;-69
2023/03/17 11:59:00;;;;;;;4.67;2.70;;;11.80;97.90;;;;;;5037827;28;20457;-72
2023/03/17 12:01:42;;;;;;;2.20;1.90;;;11.90;97.90;;;;;;5037788;28;20462;-70
2023/03/17 12:04:22;;;;;;;3.03;2.37;;;11.90;97.80;;;;;;5018284;28;20776;-69
2023/03/17 12:07:07;;;;;;;2.30;2.10;;;11.90;97.80;;;;;;5017895;28;20433;-70
2023/03/17 12:09:41;;;;;;;3.40;2.50;;;12.00;97.90;;;;;;5030517;28;20448;-70
2023/03/17 12:12:11;;;;;;;2.57;2.20;;;12.00;97.80;;;;;;5035997;28;20444;-68
2023/03/17 12:14:51;;;;;;;9.23;2.83;;;12.00;97.80;;;;;;5035825;28;20837;-69
2023/03/17 12:17:31;;;;;;;5.90;2.57;;;12.00;97.80;;;;;;5054542;28;20480;-69
2023/03/17 12:20:25;;;;;;;3.63;2.13;;;12.10;97.80;;;;;;5035745;28;20456;-69
2023/03/17 12:23:09;;;;;;;2.30;2.07;;;12.10;97.80;;;;;;5036116;28;20499;-69
2023/03/17 12:26:05;;;;;;;4.23;2.00;;;12.20;97.80;;;;;;5054956;28;20402;-69
2023/03/17 12:28:41;;;;;;;4.43;2.30;;;12.20;97.80;;;;;;5036932;28;20526;-68
2023/03/17 12:31:12;;;;;;;5.20;2.60;;;12.20;97.80;;;;;;5037127;28;20501;-69
2023/03/17 12:34:09;;;;;;;4.80;2.30;;;12.20;97.80;;;;;;5054760;28;20525;-69
2023/03/17 12:36:37;;;;;;;3.23;2.33;;;12.30;97.90;;;;;;5036963;28;20449;-69
2023/03/17 12:39:13;;;;;;;2.77;2.40;;;12.30;97.90;;;;;;5036987;28;20552;-69
2023/03/17 12:41:45;;;;;;;2.47;1.90;;;12.30;97.80;;;;;;5036872;28;20470;-69
2023/03/17 12:44:30;;;;;;;3.40;2.30;;;12.30;97.80;;;;;;5036901;28;20947;-70
2023/03/17 12:46:57;;;;;;;3.30;2.23;;;12.40;97.90;;;;;;5037039;28;20417;-69
2023/03/17 12:49:46;;;;;;;2.07;1.70;;;12.40;97.80;;;;;;5036682;28;20446;-69
2023/03/17 12:52:52;;;;;;;4.40;2.67;;;12.40;97.90;;;;;;5036855;28;20440;-69
2023/03/17 12:55:26;;;;;;;3.20;2.40;;;12.50;98.30;;;;;;5000837;28;20414;-69
2023/03/17 12:58:02;;;;;;;2.73;2.23;;;12.50;97.90;;;;;;5000085;28;20776;-69
2023/03/17 13:00:49;;;;;;;2.37;1.97;;;12.50;97.90;;;;;;5016396;28;20504;-69
2023/03/17 13:03:24;;;;;;;3.40;2.37;;;12.50;97.90;;;;;;5034215;28;20915;-69
2023/03/17 13:05:57;;;;;;;5.53;2.30;;;12.60;97.90;;;;;;5016634;28;20988;-69
2023/03/17 13:08:44;;;;;;;4.60;2.20;;;12.60;97.90;;;;;;5033938;28;20410;-71
2023/03/17 13:11:13;;;;;;;6.00;2.57;;;12.60;97.90;;;;;;5034206;28;20530;-69
2023/03/17 13:13:54;;;;;;;4.80;2.20;;;12.70;97.90;;;;;;5000194;28;20427;-69
2023/03/17 13:16:31;;;;;;;2.93;2.03;;;12.70;97.90;;;;;;5016912;28;20517;-69